Terminal Aerodrome Forecast
Issued by NWS

Home | Current Version | Previous Version | Graphics & Text | Print | Product List | Glossary On
Versions: 1 2 3 4 5 6 7 8 9 10 11 12 13 14 15 16 17 18
000
FTUS43 KTOP 311101 AAB
TAFFOE
TAF AMD
KFOE 311101Z 3111/0106 00000KT 3SM BR SCT015
      TEMPO 3111/3113 1/2SM FG VV008
     FM311500 16008KT P6SM SCT025=

USA.gov is the U.S. government's official web portal to all federal, state and local government web resources and services.